METAR Data
IDs: Format: Raw Decoded Include TAF

Data at: 2134 UTC 18 Sep 2018

KC75 182115Z AUTO 03005KT 10SM -RA SCT041 SCT060 SCT075 24/18 A2994 RMK AO2 T02350183
KC75 182055Z AUTO 01007KT 10SM CLR 24/18 A2995 RMK AO2 T02370182
KC75 182035Z AUTO 01007G15KT 330V040 10SM CLR 24/19 A2996 RMK AO2 T02400186
KC75 182015Z AUTO 01008G16KT 10SM CLR 25/19 A2996 RMK AO2 T02470192
KC75 181955Z AUTO 01009KT 350V050 10SM CLR 25/20 A2996 RMK AO2 T02510197
KC75 181935Z AUTO 01010G16KT 320V050 10SM CLR 26/20 A2996 RMK AO2 T02630196
KC75 181915Z AUTO 02003KT 10SM CLR 28/20 A2995 RMK AO2 T02770198
KC75 181855Z AUTO 02004KT 10SM CLR 28/19 A2995 RMK AO2 T02820194
KC75 181835Z AUTO 02003KT 10SM CLR 29/20 A2995 RMK AO2 T02900198
KC75 181815Z AUTO 36007KT 10SM CLR 30/19 A2995 RMK AO2 T02980193
KC75 181755Z AUTO 36003KT 10SM CLR 30/20 A2995 RMK AO2 T03020198 10302 20195
KC75 181735Z AUTO 00000KT 10SM CLR 30/19 A2996 RMK AO2 T02990194
KC75 181715Z AUTO 00000KT 10SM CLR 29/19 A2996 RMK AO2 T02920193
KC75 181655Z AUTO 03003KT 10SM CLR 29/19 A2996 RMK AO2 T02880193
KC75 181635Z AUTO 00000KT 10SM CLR 28/20 A2996 RMK AO2 T02830195
KC75 181615Z AUTO 01003KT 10SM CLR 28/20 A2996 RMK AO2 T02790196
KC75 181555Z AUTO 00000KT 7SM CLR 27/20 A2996 RMK AO2 T02730198
KC75 181535Z AUTO 05004KT 10SM CLR 27/20 A2997 RMK AO2 T02650202
KC75 181515Z AUTO 35006KT 10SM CLR 26/20 A2997 RMK AO2 T02560200
KC75 181455Z AUTO 02004KT 10SM CLR 26/20 A2997 RMK AO2 T02550197
KC75 181435Z AUTO 36005KT 10SM SCT090 25/19 A2997 RMK AO2 T02520194
KC75 181415Z AUTO 34007KT 10SM BKN090 OVC120 24/20 A2997 RMK AO2 T02420202
KC75 181355Z AUTO 00000KT 10SM SCT090 BKN110 24/20 A2996 RMK AO2 T02360203
KC75 181335Z AUTO 21003KT 10SM BKN090 23/20 A2996 RMK AO2 T02270203
KC75 181315Z AUTO 20003KT 10SM SCT090 22/20 A2996 RMK AO2 T02160204
KC75 181255Z AUTO 00000KT 10SM CLR 21/20 A2996 RMK AO2 T02080202
KC75 181235Z AUTO 00000KT 10SM CLR 20/20 A2996 RMK AO2 T02000195
KC75 181215Z AUTO 00000KT 10SM CLR 20/19 A2996 RMK AO2 T01970193
KC75 181155Z AUTO 00000KT 10SM CLR 20/19 A2995 RMK AO2 T01950191 10207 20185
KC75 181135Z AUTO 00000KT 10SM CLR 20/19 A2995 RMK AO2 T01950190
KC75 181115Z AUTO 00000KT 10SM CLR 19/19 A2995 RMK AO2 T01930189
KC75 181055Z AUTO 00000KT 10SM CLR 19/19 A2995 RMK AO2 T01920188
KC75 181035Z AUTO 00000KT 10SM CLR 19/19 A2994 RMK AO2 T01900185
KC75 181015Z AUTO 00000KT 10SM CLR 19/18 A2994 RMK AO2 T01870183
KC75 180955Z AUTO 00000KT 10SM CLR 19/18 A2993 RMK AO2 T01860181
KC75 180935Z AUTO 00000KT 10SM CLR 19/18 A2993 RMK AO2 T01910184
KC75 180915Z AUTO 00000KT 10SM CLR 19/19 A2994 RMK AO2 T01910185
KC75 180855Z AUTO 00000KT 10SM CLR 19/19 A2993 RMK AO2 T01930186
KC75 180835Z AUTO 00000KT 10SM CLR 20/19 A2993 RMK AO2 T01950186
KC75 180815Z AUTO 00000KT 10SM CLR 20/20 A2993 RMK AO2 T02040196
KC75 180755Z AUTO 00000KT 10SM SCT070 21/20 A2994 RMK AO2 T02050195
KC75 180735Z AUTO 00000KT 10SM BKN070 BKN080 20/19 A2994 RMK AO2 T01970187
KC75 180715Z AUTO 00000KT 10SM SCT070 SCT090 20/19 A2994 RMK AO2 T01990187
KC75 180655Z AUTO 00000KT 10SM BKN070 BKN090 20/19 A2994 RMK AO2 T02000188
KC75 180635Z AUTO 00000KT 10SM SCT070 19/18 A2994 RMK AO2 T01930183
KC75 180615Z AUTO 00000KT 10SM CLR 19/18 A2994 RMK AO2 T01930183
KC75 180555Z AUTO 00000KT 10SM CLR 20/19 A2994 RMK AO2 T01950185 10266 20195 403290173
KC75 180535Z AUTO 00000KT 10SM CLR 20/19 A2994 RMK AO2 T01990185
KC75 180515Z AUTO 00000KT 10SM CLR 20/19 A2994 RMK AO2 T02000185
KC75 180455Z AUTO 00000KT 10SM CLR 20/19 A2994 RMK AO2 T02000185
KC75 180435Z AUTO 00000KT 10SM CLR 20/18 A2994 RMK AO2 T01970180
KC75 180415Z AUTO 00000KT 10SM CLR 20/18 A2994 RMK AO2 T02000176
KC75 180355Z AUTO 00000KT 10SM CLR 20/18 A2994 RMK AO2 T02030178
KC75 180335Z AUTO 00000KT 10SM CLR 21/18 A2994 RMK AO2 T02060181
KC75 180315Z AUTO 00000KT 10SM CLR 21/18 A2993 RMK AO2 T02060178
KC75 180255Z AUTO 00000KT 10SM CLR 21/18 A2993 RMK AO2 T02100177
KC75 180235Z AUTO 00000KT 10SM CLR 21/18 A2993 RMK AO2 T02140179
KC75 180215Z AUTO 00000KT 10SM CLR 21/18 A2993 RMK AO2 T02090184
KC75 180155Z AUTO 00000KT 10SM CLR 21/19 A2992 RMK AO2 T02110187
KC75 180135Z AUTO 00000KT 10SM CLR 22/19 A2992 RMK AO2 T02200190
KC75 180115Z AUTO 00000KT 10SM CLR 23/18 A2991 RMK AO2 T02260182
KC75 180055Z AUTO 00000KT 10SM CLR 23/19 A2990 RMK AO2 T02300185
KC75 180035Z AUTO 00000KT 10SM CLR 24/19 A2990 RMK AO2 T02390187
KC75 180015Z AUTO 00000KT 10SM CLR 25/19 A2990 RMK AO2 T02450190
KC75 172355Z AUTO 00000KT 10SM CLR 27/20 A2989 RMK AO2 T02700201 10329 20270
KC75 172335Z AUTO 00000KT 10SM CLR 29/20 A2989 RMK AO2 T02900203
KC75 172315Z AUTO 00000KT 10SM CLR 31/18 A2989 RMK AO2 T03070178
KC75 172255Z AUTO 00000KT 10SM SCT090 32/17 A2989 RMK AO2 T03170171
KC75 172235Z AUTO 00000KT 10SM BKN090 31/20 A2989 RMK AO2 T03050201
KC75 172215Z AUTO 00000KT 10SM SCT080 31/18 A2989 RMK AO2 T03050184
KC75 172155Z AUTO 00000KT 10SM SCT080 31/18 A2989 RMK AO2 T03100175
KC75 172135Z AUTO 26004KT 10SM CLR 33/17 A2989 RMK AO2 T03260169
KC75 172115Z AUTO 00000KT 10SM CLR 33/18 A2989 RMK AO2 T03260177
KC75 172055Z AUTO 28003KT 10SM CLR 33/17 A2989 RMK AO2 T03260174
KC75 172035Z AUTO 26004KT 10SM CLR 33/18 A2989 RMK AO2 T03280177
KC75 172015Z AUTO 00000KT 10SM CLR 33/18 A2989 RMK AO2 T03250179
KC75 171955Z AUTO 22003KT 10SM CLR 32/17 A2989 RMK AO2 T03230174
KC75 171935Z AUTO 35003KT 10SM CLR 32/17 A2989 RMK AO2 T03220170
KC75 171915Z AUTO 29004KT 10SM CLR 32/18 A2990 RMK AO2 T03240175
KC75 171855Z AUTO 32004KT 10SM CLR 32/17 A2990 RMK AO2 T03210167
KC75 171835Z AUTO 32004KT 10SM SCT060 32/16 A2991 RMK AO2 T03210160
KC75 171815Z AUTO 11003KT 10SM CLR 32/18 A2992 RMK AO2 T03160179
KC75 171755Z AUTO 00000KT 10SM CLR 32/19 A2993 RMK AO2 T03150186 10315 20180
KC75 171735Z AUTO 09003KT 10SM CLR 32/19 A2994 RMK AO2 T03150191
KC75 171715Z AUTO 00000KT 10SM CLR 31/19 A2994 RMK AO2 T03100189
KC75 171650Z AUTO 01004KT 10SM CLR 30/19 A2995 RMK AO2 T03030193
KC75 171630Z AUTO 01003KT 10SM CLR 30/19 A2995 RMK AO2 T02970193
KC75 171615Z AUTO 35003KT 10SM CLR 29/19 A2996 RMK AO2 T02910188
KC75 171555Z AUTO 00000KT 10SM CLR 28/20 A2996 RMK AO2 T02830202
KC75 171535Z AUTO 30003KT 10SM CLR 28/20 A2996 RMK AO2 T02750199
KC75 171515Z AUTO 00000KT 10SM CLR 26/20 A2997 RMK AO2 T02610198
KC75 171455Z AUTO 00000KT 10SM CLR 26/20 A2997 RMK AO2 T02550197
KC75 171435Z AUTO 00000KT 10SM CLR 25/20 A2997 RMK AO2 T02470196
KC75 171415Z AUTO 00000KT 10SM CLR 24/20 A2997 RMK AO2 T02400195
KC75 171355Z AUTO 00000KT 10SM CLR 23/20 A2996 RMK AO2 T02320196
KC75 171335Z AUTO 00000KT 10SM SCT065 22/19 A2997 RMK AO2 T02210192
KC75 171315Z AUTO 00000KT 10SM BKN065 21/19 A2997 RMK AO2 T02070188
KC75 171255Z AUTO 00000KT 10SM SCT065 20/19 A2997 RMK AO2 T01960186
KC75 171235Z AUTO 00000KT 10SM SCT070 19/18 A2997 RMK AO2 T01910180
KC75 171215Z AUTO 00000KT 10SM BKN070 19/18 A2996 RMK AO2 T01860180
KC75 171155Z AUTO 14003KT 10SM SCT070 18/17 A2996 RMK AO2 T01780174 10210 20173
KC75 171135Z AUTO 00000KT 10SM CLR 18/17 A2995 RMK AO2 T01760171
KC75 171115Z AUTO 00000KT 10SM CLR 18/17 A2995 RMK AO2 T01750170
KC75 171055Z AUTO 00000KT 10SM CLR 18/17 A2995 RMK AO2 T01770171
KC75 171035Z AUTO 00000KT 10SM CLR 18/17 A2995 RMK AO2 T01760170
KC75 171015Z AUTO 00000KT 10SM CLR 18/17 A2995 RMK AO2 T01770170
KC75 170955Z AUTO 00000KT 10SM CLR 18/17 A2995 RMK AO2 T01800172
KC75 170935Z AUTO 00000KT 10SM CLR 18/17 A2995 RMK AO2 T01810173